Time;durP1;ratioP1;P1;durP2;ratioP2;P2;SDS_P1;SDS_P2;PMS_P1;PMS_P2;Temp;Humidity;BMP_temperature;BMP_pressure;BME280_temperature;BME280_humidity;BME280_pressure;Samples;Min_cycle;Max_cycle;Signal;HPM_P1;HPM_P2
2022/07/18 00:00:16;;;;;;;1.10;1.10;;;22.60;64.20;;;;;;6243007;22;44067;-64
2022/07/18 00:02:43;;;;;;;1.70;1.30;;;22.60;64.20;;;;;;6242716;22;44044;-64
2022/07/18 00:05:11;;;;;;;1.00;1.00;;;22.60;64.20;;;;;;6242485;22;43419;-64
2022/07/18 00:07:38;;;;;;;1.27;1.20;;;22.60;64.20;;;;;;6242728;22;43597;-64
2022/07/18 00:10:06;;;;;;;1.27;1.25;;;22.60;64.20;;;;;;6242804;22;44653;-64
2022/07/18 00:12:33;;;;;;;1.20;1.17;;;22.60;64.20;;;;;;6241798;22;44016;-64
2022/07/18 00:15:00;;;;;;;1.17;1.17;;;22.50;64.10;;;;;;6243625;22;43331;-64
2022/07/18 00:17:28;;;;;;;1.20;1.20;;;22.50;64.10;;;;;;6243127;22;43557;-64
2022/07/18 00:19:55;;;;;;;1.05;1.05;;;22.50;64.10;;;;;;6242319;22;45245;-64
2022/07/18 00:22:23;;;;;;;1.42;1.33;;;22.50;64.10;;;;;;6242352;22;43370;-64
2022/07/18 00:24:50;;;;;;;1.30;1.20;;;22.50;64.20;;;;;;6242947;22;43348;-64
2022/07/18 00:27:18;;;;;;;1.23;1.20;;;22.50;64.10;;;;;;6242005;22;43581;-64
2022/07/18 00:29:45;;;;;;;1.30;1.20;;;22.50;64.10;;;;;;6215315;22;44162;-64
2022/07/18 00:32:13;;;;;;;1.80;1.00;;;22.50;64.10;;;;;;6242398;22;43931;-64
2022/07/18 00:34:40;;;;;;;1.30;1.20;;;22.50;64.10;;;;;;6242279;22;43513;-64
2022/07/18 00:37:07;;;;;;;1.40;1.30;;;22.40;64.00;;;;;;6243362;22;43585;-64
2022/07/18 00:39:35;;;;;;;1.17;1.17;;;22.50;64.10;;;;;;6242444;22;44058;-64
2022/07/18 00:42:03;;;;;;;1.10;1.10;;;22.50;64.10;;;;;;6242138;22;43387;-64
2022/07/18 00:44:30;;;;;;;1.20;1.20;;;22.40;64.00;;;;;;6242865;22;43411;-64
2022/07/18 00:47:00;;;;;;;1.05;1.05;;;22.40;64.00;;;;;;6242754;22;43550;-64
2022/07/18 00:49:28;;;;;;;1.25;1.25;;;22.50;64.10;;;;;;6242669;22;44791;-64
2022/07/18 00:51:56;;;;;;;1.27;1.20;;;22.40;64.10;;;;;;6242677;22;43945;-64
2022/07/18 00:54:24;;;;;;;1.20;1.20;;;22.40;64.00;;;;;;6242059;22;43473;-64
2022/07/18 00:56:51;;;;;;;1.30;1.30;;;22.40;64.00;;;;;;6242950;22;43613;-64
2022/07/18 00:59:19;;;;;;;1.17;1.17;;;22.40;64.00;;;;;;6242538;22;44945;-64
2022/07/18 01:01:47;;;;;;;1.20;1.13;;;22.40;64.00;;;;;;6241400;22;44048;-64
2022/07/18 01:04:23;;;;;;;1.20;1.20;;;22.40;64.00;;;;;;6242769;22;43416;-64
2022/07/18 01:06:51;;;;;;;1.00;1.00;;;22.40;64.00;;;;;;6242992;22;43501;-64
2022/07/18 01:09:19;;;;;;;1.13;1.13;;;22.40;64.00;;;;;;6241593;22;45041;-64
2022/07/18 01:11:47;;;;;;;1.30;1.30;;;22.40;64.00;;;;;;6241495;22;43937;-64
2022/07/18 01:14:16;;;;;;;1.40;1.35;;;22.40;64.00;;;;;;6242721;22;43408;-64
2022/07/18 01:16:43;;;;;;;1.48;1.38;;;22.40;64.00;;;;;;6241801;22;43567;-64
2022/07/18 01:19:11;;;;;;;1.27;1.27;;;22.40;64.00;;;;;;6242673;22;44790;-64
2022/07/18 01:21:39;;;;;;;1.15;1.15;;;22.40;64.00;;;;;;6242071;22;43411;-64
2022/07/18 01:24:06;;;;;;;1.40;1.30;;;22.40;64.00;;;;;;6241894;22;43419;-64
2022/07/18 01:26:34;;;;;;;1.20;1.20;;;22.30;63.90;;;;;;6242650;22;43531;-64
2022/07/18 01:29:01;;;;;;;1.20;1.20;;;22.30;63.90;;;;;;6241777;22;44039;-64
2022/07/18 01:31:33;;;;;;;1.40;1.20;;;22.30;64.00;;;;;;6241899;22;43472;-64
2022/07/18 01:34:01;;;;;;;1.25;1.10;;;22.30;63.90;;;;;;6242504;22;43434;-64
2022/07/18 01:36:29;;;;;;;1.10;1.08;;;22.30;63.90;;;;;;6241497;22;43588;-64
2022/07/18 01:38:56;;;;;;;1.10;1.10;;;22.30;63.90;;;;;;6242611;22;43777;-64
2022/07/18 01:41:23;;;;;;;1.17;1.17;;;22.30;63.90;;;;;;6242159;22;43931;-64
2022/07/18 01:43:51;;;;;;;1.55;1.20;;;22.30;63.90;;;;;;6241540;22;43355;-64
2022/07/18 01:46:18;;;;;;;1.10;1.10;;;22.30;63.90;;;;;;6242537;22;43401;-64
2022/07/18 01:48:45;;;;;;;1.20;1.20;;;22.30;63.90;;;;;;6242493;22;44040;-64
2022/07/18 01:51:14;;;;;;;1.40;1.30;;;22.30;63.90;;;;;;6241287;22;43928;-64
2022/07/18 01:53:42;;;;;;;1.27;1.27;;;22.30;63.90;;;;;;6242159;22;43467;-64
2022/07/18 01:56:12;;;;;;;1.80;1.33;;;22.30;63.90;;;;;;6242334;22;43531;-64
2022/07/18 01:58:39;;;;;;;1.10;1.10;;;22.20;63.80;;;;;;6241104;22;45577;-64
2022/07/18 02:01:07;;;;;;;1.67;1.30;;;22.20;63.80;;;;;;6242030;22;43976;-64
2022/07/18 02:03:34;;;;;;;1.50;1.40;;;22.20;63.80;;;;;;6241909;22;43403;-64
2022/07/18 02:06:01;;;;;;;1.40;1.35;;;22.20;63.80;;;;;;6241821;22;43557;-64
2022/07/18 02:08:29;;;;;;;1.30;1.20;;;22.20;63.80;;;;;;6242012;22;45094;-64
2022/07/18 02:10:57;;;;;;;1.40;1.30;;;22.20;63.80;;;;;;6242292;22;43490;-64
2022/07/18 02:13:24;;;;;;;1.20;1.20;;;22.20;63.80;;;;;;6241140;22;43431;-64
2022/07/18 02:15:55;;;;;;;1.45;1.35;;;22.20;63.80;;;;;;6242015;22;43534;-64
2022/07/18 02:18:22;;;;;;;1.70;1.60;;;22.20;63.80;;;;;;6241404;22;44640;-64
2022/07/18 02:20:50;;;;;;;1.45;1.35;;;22.20;63.80;;;;;;6242095;22;43415;-64
2022/07/18 02:23:17;;;;;;;1.52;1.42;;;22.20;63.80;;;;;;6242105;22;43459;-64
2022/07/18 02:25:44;;;;;;;1.40;1.30;;;22.20;63.80;;;;;;6242765;22;43578;-64
2022/07/18 02:28:12;;;;;;;1.45;1.35;;;22.20;63.80;;;;;;6243026;22;44099;-64
2022/07/18 02:30:39;;;;;;;1.48;1.38;;;22.10;63.80;;;;;;6243597;22;43451;-64
2022/07/18 02:33:06;;;;;;;1.52;1.42;;;22.10;63.80;;;;;;6242656;22;43448;-64
2022/07/18 02:35:34;;;;;;;1.25;1.17;;;22.10;63.80;;;;;;6243417;22;43408;-64
2022/07/18 02:38:02;;;;;;;1.33;1.30;;;22.10;63.80;;;;;;6243886;22;44014;-64
2022/07/18 02:40:30;;;;;;;1.48;1.38;;;22.10;63.80;;;;;;6242318;22;43935;-64
2022/07/18 02:42:57;;;;;;;1.20;1.20;;;22.10;63.80;;;;;;6243746;22;43404;-64
2022/07/18 02:45:25;;;;;;;2.08;1.50;;;22.10;63.80;;;;;;6243689;22;43418;-64
2022/07/18 02:47:52;;;;;;;2.47;1.50;;;22.10;63.80;;;;;;6242324;22;43841;-64
2022/07/18 02:50:20;;;;;;;1.60;1.50;;;22.10;63.80;;;;;;6243255;22;43454;-64
2022/07/18 02:52:48;;;;;;;1.52;1.42;;;22.10;63.80;;;;;;6243295;22;43421;-64
2022/07/18 02:55:15;;;;;;;1.48;1.38;;;22.10;63.80;;;;;;6242795;22;43534;-64
2022/07/18 02:57:43;;;;;;;1.77;1.67;;;22.10;63.80;;;;;;6243615;22;44948;-64
2022/07/18 03:00:14;;;;;;;1.60;1.50;;;22.10;63.90;;;;;;6243217;22;43860;-64
2022/07/18 03:02:42;;;;;;;1.70;1.60;;;22.10;63.80;;;;;;6242434;22;43387;-64
2022/07/18 03:05:09;;;;;;;1.77;1.48;;;22.00;63.80;;;;;;6244020;22;43553;-64
2022/07/18 03:07:37;;;;;;;1.83;1.60;;;22.00;63.80;;;;;;6242860;22;45089;-64
2022/07/18 03:10:05;;;;;;;1.70;1.58;;;22.00;63.90;;;;;;6243466;22;43379;-64
2022/07/18 03:12:32;;;;;;;1.90;1.80;;;22.00;63.90;;;;;;6243683;22;43364;-64
2022/07/18 03:15:00;;;;;;;1.60;1.50;;;22.00;63.90;;;;;;6243399;22;43543;-64
2022/07/18 03:17:27;;;;;;;1.85;1.75;;;22.00;63.90;;;;;;6243291;22;43986;-64
2022/07/18 03:19:54;;;;;;;1.70;1.58;;;22.00;63.90;;;;;;6243330;22;43462;-64
2022/07/18 03:22:22;;;;;;;1.73;1.40;;;22.00;63.90;;;;;;6242619;22;43414;-64
2022/07/18 03:24:49;;;;;;;1.88;1.77;;;22.00;63.90;;;;;;6243192;22;43466;-64
2022/07/18 03:27:16;;;;;;;1.80;1.70;;;22.00;64.00;;;;;;6243256;22;43989;-64
2022/07/18 03:29:44;;;;;;;2.15;1.75;;;22.00;64.00;;;;;;6241989;22;43988;-64
2022/07/18 03:32:11;;;;;;;1.85;1.75;;;22.00;64.00;;;;;;6243117;22;43360;-65
2022/07/18 03:34:38;;;;;;;1.80;1.70;;;22.00;64.00;;;;;;6242668;22;43608;-64
2022/07/18 03:37:06;;;;;;;2.00;1.83;;;21.90;63.90;;;;;;6242056;22;44031;-64
2022/07/18 03:39:33;;;;;;;1.67;1.58;;;21.90;63.90;;;;;;6242809;22;43467;-64
2022/07/18 03:42:00;;;;;;;1.98;1.85;;;21.90;63.90;;;;;;6242952;22;43948;-64
2022/07/18 03:44:28;;;;;;;1.98;1.88;;;21.90;63.90;;;;;;6242378;22;43566;-64
2022/07/18 03:46:55;;;;;;;1.75;1.65;;;21.90;63.90;;;;;;6243545;22;44066;-65
2022/07/18 03:49:22;;;;;;;3.38;2.10;;;21.90;63.90;;;;;;6242929;22;43997;-64
2022/07/18 03:51:50;;;;;;;1.80;1.70;;;21.90;64.00;;;;;;6242303;22;43419;-64
2022/07/18 03:54:17;;;;;;;2.58;1.70;;;21.90;64.00;;;;;;6242947;22;43519;-64
2022/07/18 03:56:44;;;;;;;1.75;1.65;;;21.90;64.00;;;;;;6242366;22;44012;-64
2022/07/18 03:59:12;;;;;;;1.90;1.80;;;21.90;64.00;;;;;;6242942;22;43886;-64
2022/07/18 04:01:39;;;;;;;1.80;1.70;;;21.90;64.00;;;;;;6243008;22;43389;-64
2022/07/18 04:04:07;;;;;;;2.28;1.90;;;21.90;64.00;;;;;;6241868;22;43589;-64
2022/07/18 04:06:34;;;;;;;2.22;2.03;;;21.90;64.00;;;;;;6242996;22;45045;-64
2022/07/18 04:09:02;;;;;;;2.00;1.90;;;21.90;64.00;;;;;;6243252;22;43375;-64
2022/07/18 04:11:29;;;;;;;2.08;1.83;;;21.90;64.00;;;;;;6241977;22;43466;-64
2022/07/18 04:13:57;;;;;;;2.20;2.10;;;21.90;64.00;;;;;;6242978;22;43489;-64
2022/07/18 04:16:24;;;;;;;2.50;2.30;;;21.80;64.00;;;;;;6242766;22;44893;-64
2022/07/18 04:18:52;;;;;;;2.97;1.80;;;21.90;64.10;;;;;;6242153;22;44254;-64
2022/07/18 04:21:19;;;;;;;2.03;1.90;;;21.80;64.00;;;;;;6242871;22;43459;-64
2022/07/18 04:23:46;;;;;;;2.17;2.08;;;21.80;64.00;;;;;;6242820;22;43598;-64
2022/07/18 04:26:14;;;;;;;2.00;1.90;;;21.80;64.00;;;;;;6241943;22;45116;-64
2022/07/18 04:28:41;;;;;;;2.50;2.13;;;21.80;64.00;;;;;;6242298;22;43399;-64
2022/07/18 04:31:08;;;;;;;2.58;1.98;;;21.80;64.00;;;;;;6243075;22;43421;-64
2022/07/18 04:33:36;;;;;;;2.30;2.10;;;21.80;64.00;;;;;;6242009;22;43518;-64
2022/07/18 04:36:03;;;;;;;2.00;1.90;;;21.80;64.00;;;;;;6242748;22;45090;-64
2022/07/18 04:38:34;;;;;;;2.03;1.92;;;21.80;64.00;;;;;;6242704;22;43757;-64
2022/07/18 04:41:01;;;;;;;2.30;2.10;;;21.80;64.00;;;;;;6242616;22;43382;-64
2022/07/18 04:43:28;;;;;;;2.45;2.00;;;21.80;64.00;;;;;;6242814;22;43499;-64
2022/07/18 04:45:56;;;;;;;2.20;2.10;;;21.80;64.10;;;;;;6241937;22;45181;-64
2022/07/18 04:48:23;;;;;;;2.38;2.10;;;21.70;64.00;;;;;;6242292;22;44029;-64
2022/07/18 04:50:50;;;;;;;2.20;2.10;;;21.80;64.10;;;;;;6242590;22;43361;-64
2022/07/18 04:53:18;;;;;;;2.10;2.00;;;21.80;64.10;;;;;;6242413;22;43503;-64
2022/07/18 04:55:45;;;;;;;2.25;2.05;;;21.80;64.00;;;;;;6242413;22;44943;-64
2022/07/18 04:58:13;;;;;;;2.45;2.25;;;21.80;64.10;;;;;;6242499;22;43400;-64
2022/07/18 05:00:41;;;;;;;2.47;2.28;;;21.70;64.00;;;;;;6241757;22;43395;-64
2022/07/18 05:03:08;;;;;;;2.88;2.40;;;21.70;64.00;;;;;;6242647;22;43482;-64
2022/07/18 05:05:36;;;;;;;2.00;1.90;;;21.80;64.10;;;;;;6242265;22;43777;-64
2022/07/18 05:08:04;;;;;;;2.28;2.13;;;21.70;64.00;;;;;;6241793;22;43407;-64
2022/07/18 05:10:32;;;;;;;2.25;2.15;;;21.70;64.00;;;;;;6215634;22;43347;-64
2022/07/18 05:12:59;;;;;;;2.47;2.28;;;21.70;64.00;;;;;;6242905;22;43538;-64
2022/07/18 05:15:27;;;;;;;2.60;2.40;;;21.70;64.00;;;;;;6241630;22;44660;-64
2022/07/18 05:17:54;;;;;;;2.10;2.00;;;21.70;64.00;;;;;;6242797;22;43436;-64
2022/07/18 05:20:25;;;;;;;2.88;2.30;;;21.70;64.10;;;;;;6242468;22;43453;-64
2022/07/18 05:22:54;;;;;;;2.38;2.17;;;21.70;64.10;;;;;;6242163;22;43643;-61
2022/07/18 05:25:22;;;;;;;2.60;2.40;;;21.70;64.20;;;;;;6242101;22;43815;-64
2022/07/18 05:27:51;;;;;;;2.83;2.20;;;21.70;64.30;;;;;;6241853;22;43391;-63
2022/07/18 05:30:19;;;;;;;2.80;2.60;;;21.70;64.20;;;;;;6241924;22;43415;-64
2022/07/18 05:32:47;;;;;;;2.50;2.30;;;21.70;64.10;;;;;;6242456;22;43530;-64
2022/07/18 05:35:15;;;;;;;2.95;2.70;;;21.70;64.10;;;;;;6241356;22;44930;-64
2022/07/18 05:37:42;;;;;;;3.00;2.30;;;21.70;64.20;;;;;;6242004;22;45030;-64
2022/07/18 05:40:12;;;;;;;2.53;2.33;;;21.70;64.20;;;;;;6242337;22;43374;-64
2022/07/18 05:42:40;;;;;;;2.72;2.53;;;21.70;64.20;;;;;;6241633;22;43498;-64
2022/07/18 05:45:23;;;;;;;2.95;2.70;;;21.70;64.20;;;;;;6242814;22;44917;-64
2022/07/18 05:47:52;;;;;;;2.80;2.60;;;21.70;64.20;;;;;;6241789;22;43480;-64
2022/07/18 05:50:21;;;;;;;2.60;2.40;;;21.70;64.20;;;;;;6241494;22;43464;-64
2022/07/18 05:52:48;;;;;;;2.92;2.72;;;21.70;64.20;;;;;;6242331;22;43481;-64
2022/07/18 05:55:16;;;;;;;2.80;2.60;;;21.70;64.20;;;;;;6242141;22;45146;-64
2022/07/18 05:57:43;;;;;;;3.10;2.80;;;21.70;64.10;;;;;;6241439;22;44107;-64
2022/07/18 06:00:12;;;;;;;2.45;2.25;;;21.70;64.20;;;;;;6243600;22;43359;-63
2022/07/18 06:02:39;;;;;;;2.90;2.50;;;21.70;64.10;;;;;;6240012;22;43487;-64
2022/07/18 06:05:09;;;;;;;2.58;2.38;;;21.70;64.10;;;;;;6241427;22;44719;-64
2022/07/18 06:07:55;;;;;;;2.47;2.38;;;21.70;64.10;;;;;;6220586;22;43405;-64
2022/07/18 06:10:24;;;;;;;2.70;2.50;;;21.70;64.10;;;;;;6241734;22;43379;-64
2022/07/18 06:12:53;;;;;;;2.85;2.55;;;21.70;64.10;;;;;;6243101;22;43396;-63
2022/07/18 06:15:20;;;;;;;2.42;2.22;;;21.70;64.10;;;;;;6242454;22;45138;-64
2022/07/18 06:17:48;;;;;;;2.35;2.25;;;21.70;64.10;;;;;;6242284;22;44142;-64
2022/07/18 06:20:16;;;;;;;2.92;2.72;;;21.80;64.10;;;;;;6242386;22;43470;-64
2022/07/18 06:22:44;;;;;;;2.58;2.38;;;21.70;64.10;;;;;;6242964;22;43392;-64
2022/07/18 06:25:12;;;;;;;2.45;2.25;;;21.70;64.10;;;;;;6214649;22;44218;-64
2022/07/18 06:27:39;;;;;;;2.83;2.63;;;21.80;64.20;;;;;;6242091;22;44119;-64
2022/07/18 06:30:09;;;;;;;2.88;2.67;;;21.70;64.40;;;;;;6242125;22;43376;-63
2022/07/18 06:32:37;;;;;;;2.67;2.47;;;21.80;64.20;;;;;;6242186;22;43405;-63
2022/07/18 06:35:05;;;;;;;2.42;2.22;;;21.80;64.20;;;;;;6242447;22;44741;-64
2022/07/18 06:37:33;;;;;;;2.60;2.40;;;21.80;64.20;;;;;;6242920;22;43967;-64
2022/07/18 06:40:00;;;;;;;3.00;2.75;;;21.70;64.10;;;;;;6241054;22;43345;-63
2022/07/18 06:42:30;;;;;;;3.95;3.00;;;21.70;64.20;;;;;;6242714;22;43417;-64
2022/07/18 06:44:58;;;;;;;2.72;2.53;;;21.80;64.20;;;;;;6242630;22;44001;-64
2022/07/18 06:47:25;;;;;;;2.92;2.72;;;21.80;64.20;;;;;;6242212;22;44103;-64
2022/07/18 06:49:53;;;;;;;2.45;2.25;;;21.80;64.20;;;;;;6243782;22;43391;-64
2022/07/18 06:52:20;;;;;;;2.97;2.72;;;21.80;64.10;;;;;;6243336;22;43413;-64
2022/07/18 06:54:47;;;;;;;2.90;2.70;;;21.80;64.10;;;;;;6242416;22;44917;-64
2022/07/18 06:57:16;;;;;;;3.47;2.78;;;21.80;64.20;;;;;;6243208;22;43950;-63
2022/07/18 06:59:43;;;;;;;2.75;2.55;;;21.80;64.20;;;;;;6242574;22;43952;-62
2022/07/18 07:02:17;;;;;;;2.60;2.40;;;21.80;64.10;;;;;;6240707;22;43448;-63
2022/07/18 07:04:44;;;;;;;2.97;2.40;;;21.80;64.20;;;;;;6240245;22;45111;-63
2022/07/18 07:07:11;;;;;;;2.63;2.42;;;21.80;64.20;;;;;;6240766;22;44209;-63
2022/07/18 07:09:39;;;;;;;2.80;2.60;;;21.80;64.10;;;;;;6241760;22;43424;-63
2022/07/18 07:12:06;;;;;;;2.83;2.63;;;21.80;64.10;;;;;;6242027;22;43512;-63
2022/07/18 07:14:33;;;;;;;2.65;2.45;;;21.80;64.10;;;;;;6240154;22;44948;-63
2022/07/18 07:17:01;;;;;;;2.80;2.60;;;21.80;64.10;;;;;;6242615;22;43928;-63
2022/07/18 07:19:28;;;;;;;3.13;2.83;;;21.80;64.00;;;;;;6242436;22;43379;-63
2022/07/18 07:21:56;;;;;;;2.85;2.22;;;21.80;64.00;;;;;;6241668;22;43479;-63
2022/07/18 07:24:23;;;;;;;2.70;2.50;;;21.80;64.00;;;;;;6241006;22;44033;-63
2022/07/18 07:26:51;;;;;;;2.20;2.10;;;21.80;64.00;;;;;;6242101;22;44137;-63
2022/07/18 07:29:22;;;;;;;2.63;2.42;;;21.80;64.00;;;;;;6241190;22;43451;-63
2022/07/18 07:31:50;;;;;;;2.45;2.25;;;21.80;64.00;;;;;;6242066;22;43392;-63
2022/07/18 07:34:17;;;;;;;2.60;2.40;;;21.80;64.00;;;;;;6241496;22;44619;-63
2022/07/18 07:36:45;;;;;;;2.10;2.00;;;21.80;64.00;;;;;;6241134;22;43410;-63
2022/07/18 07:39:12;;;;;;;2.53;2.20;;;21.80;63.90;;;;;;6242061;22;43364;-63
2022/07/18 07:41:39;;;;;;;2.20;2.10;;;21.80;63.80;;;;;;6242312;22;43606;-63
2022/07/18 07:44:06;;;;;;;2.70;2.50;;;21.90;63.90;;;;;;6240843;22;44953;-63
2022/07/18 07:46:34;;;;;;;2.60;2.40;;;21.80;63.90;;;;;;6242069;22;44232;-64
2022/07/18 07:49:01;;;;;;;2.17;2.08;;;21.80;63.90;;;;;;6241544;22;43863;-63
2022/07/18 07:51:29;;;;;;;2.50;2.30;;;21.90;64.00;;;;;;6242514;22;43469;-63
2022/07/18 07:54:02;;;;;;;2.80;2.60;;;21.80;64.00;;;;;;6242864;22;43859;-63
2022/07/18 07:56:29;;;;;;;2.60;2.40;;;21.90;64.00;;;;;;6242384;22;43758;-63
2022/07/18 07:58:57;;;;;;;2.40;2.20;;;21.90;64.00;;;;;;6243498;22;43403;-63
2022/07/18 08:01:24;;;;;;;2.40;2.20;;;21.90;64.00;;;;;;6242884;22;43566;-63
2022/07/18 08:03:52;;;;;;;2.40;2.20;;;21.90;64.00;;;;;;6241852;22;43979;-64
2022/07/18 08:06:20;;;;;;;2.47;2.28;;;21.90;64.00;;;;;;6242949;22;43937;-64
2022/07/18 08:08:47;;;;;;;2.15;2.05;;;21.90;63.90;;;;;;6243176;22;43367;-63
2022/07/18 08:11:15;;;;;;;2.50;2.30;;;21.90;63.80;;;;;;6242316;22;43419;-63
2022/07/18 08:13:42;;;;;;;2.25;2.15;;;21.90;63.80;;;;;;6240756;22;44508;-63
2022/07/18 08:16:09;;;;;;;2.75;2.33;;;22.00;63.80;;;;;;6242705;22;43741;-63
2022/07/18 08:18:37;;;;;;;2.55;2.35;;;22.00;63.80;;;;;;6242105;22;43431;-63
2022/07/18 08:21:04;;;;;;;2.53;2.33;;;22.00;63.80;;;;;;6215097;22;43670;-63
2022/07/18 08:23:31;;;;;;;2.13;2.03;;;22.00;63.80;;;;;;6242373;22;44074;-63
2022/07/18 08:25:59;;;;;;;2.38;2.17;;;22.00;63.70;;;;;;6242461;22;43411;-63
2022/07/18 08:28:26;;;;;;;2.45;2.25;;;22.00;63.70;;;;;;6242787;22;43465;-64
2022/07/18 08:30:54;;;;;;;2.40;2.20;;;22.00;63.70;;;;;;6242929;22;43571;-63
2022/07/18 08:33:21;;;;;;;2.10;2.00;;;22.00;63.70;;;;;;6242659;22;44977;-63
2022/07/18 08:35:49;;;;;;;2.28;2.05;;;22.00;63.60;;;;;;6214976;22;45139;-63
2022/07/18 08:38:16;;;;;;;2.15;2.03;;;22.00;63.60;;;;;;6242288;22;43481;-63
2022/07/18 08:40:47;;;;;;;2.70;2.20;;;22.00;63.60;;;;;;6242709;22;43565;-64
2022/07/18 08:43:15;;;;;;;2.28;2.17;;;22.00;63.60;;;;;;6242772;22;44005;-63
2022/07/18 08:45:50;;;;;;;2.20;2.10;;;22.00;63.60;;;;;;6242275;22;43348;-63
2022/07/18 08:48:18;;;;;;;2.25;1.90;;;22.10;63.60;;;;;;6242810;22;43462;-63
2022/07/18 08:50:47;;;;;;;4.82;2.10;;;22.10;63.60;;;;;;6242789;22;43418;-63
2022/07/18 08:53:16;;;;;;;3.30;2.95;;;22.10;63.60;;;;;;6241866;22;44028;-63
2022/07/18 08:55:44;;;;;;;2.05;1.95;;;22.10;63.50;;;;;;6242506;22;43418;-64
2022/07/18 08:58:12;;;;;;;2.05;1.95;;;22.10;63.60;;;;;;6242756;22;43406;-63
2022/07/18 09:00:59;;;;;;;3.20;2.13;;;22.10;63.50;;;;;;6242487;22;43430;-63
2022/07/18 09:03:27;;;;;;;2.20;2.00;;;22.10;63.50;;;;;;6242397;22;43779;-63
2022/07/18 09:06:04;;;;;;;2.58;2.33;;;22.10;63.50;;;;;;6242719;22;43424;-63
2022/07/18 09:08:32;;;;;;;2.05;1.95;;;22.10;63.50;;;;;;6216371;22;43416;-63
2022/07/18 09:11:02;;;;;;;1.90;1.80;;;22.10;63.50;;;;;;6243021;22;43582;-63
2022/07/18 09:13:33;;;;;;;1.98;1.88;;;22.10;63.50;;;;;;6240090;22;44370;-63
2022/07/18 09:16:07;;;;;;;2.25;2.00;;;22.20;63.50;;;;;;6242963;22;43357;-63
2022/07/18 09:18:38;;;;;;;2.22;2.10;;;22.10;63.50;;;;;;6242983;22;43404;-64
2022/07/18 09:21:20;;;;;;;2.30;2.10;;;22.10;63.50;;;;;;6242115;22;43557;-63
2022/07/18 09:23:50;;;;;;;2.20;2.00;;;22.20;63.50;;;;;;6242105;22;44148;-64
2022/07/18 09:26:41;;;;;;;2.00;1.90;;;22.20;63.50;;;;;;6242087;22;43948;-63
2022/07/18 09:29:14;;;;;;;2.20;1.92;;;22.20;63.50;;;;;;6241769;22;43962;-63
2022/07/18 09:31:54;;;;;;;2.00;1.90;;;22.20;63.50;;;;;;6242751;22;43493;-63
2022/07/18 09:34:42;;;;;;;2.42;1.98;;;22.20;63.50;;;;;;6242075;22;44927;-63
2022/07/18 09:37:11;;;;;;;2.03;1.90;;;22.20;64.10;;;;;;6243711;22;44039;-64
2022/07/18 09:39:39;;;;;;;2.10;2.00;;;22.20;63.50;;;;;;6243517;22;43410;-63
2022/07/18 09:42:17;;;;;;;2.22;2.03;;;22.20;63.50;;;;;;6243142;22;43502;-64
2022/07/18 09:44:58;;;;;;;2.38;2.13;;;22.20;63.50;;;;;;6243473;22;43799;-64
2022/07/18 09:47:26;;;;;;;2.55;1.95;;;22.20;63.50;;;;;;6243501;22;43404;-63
2022/07/18 09:49:54;;;;;;;2.42;2.00;;;22.20;63.50;;;;;;6242917;22;43435;-63
2022/07/18 09:52:23;;;;;;;2.70;1.80;;;22.20;63.50;;;;;;6243147;22;43504;-63
2022/07/18 09:54:50;;;;;;;1.90;1.80;;;22.20;63.50;;;;;;6243417;22;44945;-63
2022/07/18 09:57:25;;;;;;;2.00;1.90;;;22.30;63.50;;;;;;6242771;22;43904;-64
2022/07/18 09:59:53;;;;;;;2.22;2.05;;;22.30;63.70;;;;;;6243706;22;44017;-63
2022/07/18 10:02:21;;;;;;;1.80;1.70;;;22.30;63.70;;;;;;6243387;22;43518;-64
2022/07/18 10:04:49;;;;;;;1.80;1.70;;;22.30;63.80;;;;;;6243069;22;44000;-65
2022/07/18 10:07:17;;;;;;;2.22;2.05;;;22.30;64.20;;;;;;6243406;22;43351;-65
2022/07/18 10:09:45;;;;;;;1.90;1.80;;;22.40;64.50;;;;;;6242915;22;43383;-64
2022/07/18 10:12:15;;;;;;;1.83;1.50;;;22.40;63.80;;;;;;6243848;22;43944;-64
2022/07/18 10:14:44;;;;;;;1.95;1.85;;;22.40;63.80;;;;;;6243424;22;44032;-63
2022/07/18 10:17:11;;;;;;;2.33;1.90;;;22.40;63.90;;;;;;6242521;22;43382;-64
2022/07/18 10:19:39;;;;;;;2.05;1.95;;;22.40;63.90;;;;;;6243605;22;43432;-63
2022/07/18 10:22:07;;;;;;;2.75;1.90;;;22.30;63.70;;;;;;6243874;22;43511;-64
2022/07/18 10:24:39;;;;;;;2.20;1.70;;;22.40;63.70;;;;;;6242486;22;45004;-64
2022/07/18 10:27:19;;;;;;;1.77;1.67;;;22.40;63.70;;;;;;6243690;22;43889;-64
2022/07/18 10:30:29;;;;;;;3.15;1.73;;;22.40;63.60;;;;;;6243779;22;43482;-64
2022/07/18 10:32:57;;;;;;;2.08;1.95;;;22.40;63.60;;;;;;6149674;23;43576;-63
2022/07/18 10:36:00;;;;;;;1.70;1.60;;;22.40;63.60;;;;;;6229848;22;44919;-63
2022/07/18 10:38:38;;;;;;;3.13;1.90;;;22.40;63.50;;;;;;6243067;22;43433;-64
2022/07/18 10:41:11;;;;;;;1.80;1.70;;;22.50;63.60;;;;;;6243486;22;43394;-65
2022/07/18 10:43:43;;;;;;;1.70;1.60;;;22.40;63.50;;;;;;6243654;22;43399;-64
2022/07/18 10:46:12;;;;;;;2.55;1.60;;;22.50;63.50;;;;;;6242231;22;44006;-63
2022/07/18 10:48:40;;;;;;;1.90;1.70;;;22.50;63.50;;;;;;6242889;22;43648;-63
2022/07/18 10:51:12;;;;;;;1.80;1.70;;;22.50;63.60;;;;;;6242956;22;43373;-63
2022/07/18 10:54:00;;;;;;;1.77;1.67;;;22.50;63.50;;;;;;6242647;22;43637;-63
2022/07/18 10:56:27;;;;;;;1.77;1.60;;;22.60;63.50;;;;;;6243482;22;45033;-64
2022/07/18 10:58:56;;;;;;;4.03;2.13;;;22.50;63.40;;;;;;6239490;22;43464;-64
2022/07/18 11:01:26;;;;;;;1.92;1.65;;;22.50;63.40;;;;;;6241860;22;43428;-64
2022/07/18 11:04:33;;;;;;;2.00;1.67;;;22.60;63.50;;;;;;6241918;22;43451;-64
2022/07/18 11:07:09;;;;;;;2.70;1.70;;;22.60;63.50;;;;;;6210646;22;47017;-63
2022/07/18 11:09:45;;;;;;;3.13;1.80;;;22.60;63.50;;;;;;6241451;22;43932;-63
2022/07/18 11:12:30;;;;;;;2.67;1.63;;;22.60;63.40;;;;;;6241301;22;43415;-64
2022/07/18 11:15:02;;;;;;;2.10;1.77;;;22.60;63.30;;;;;;6241906;22;43346;-63
2022/07/18 11:17:55;;;;;;;1.80;1.70;;;22.70;63.40;;;;;;6216298;22;43772;-64
2022/07/18 11:20:40;;;;;;;2.85;1.85;;;22.70;63.30;;;;;;6241248;22;43383;-63
2022/07/18 11:23:26;;;;;;;1.88;1.73;;;22.70;63.30;;;;;;6242200;22;43347;-63
2022/07/18 11:25:57;;;;;;;2.08;1.88;;;22.70;63.30;;;;;;6241471;22;43635;-64
2022/07/18 11:28:27;;;;;;;1.88;1.58;;;22.80;63.30;;;;;;6241077;22;45124;-63
2022/07/18 11:31:06;;;;;;;1.90;1.55;;;22.80;63.30;;;;;;6241429;22;43427;-64
2022/07/18 11:33:41;;;;;;;2.30;1.90;;;22.80;63.20;;;;;;6241317;22;43456;-63
2022/07/18 11:36:10;;;;;;;2.22;2.00;;;22.80;63.20;;;;;;6240493;22;43546;-64
2022/07/18 11:38:40;;;;;;;2.00;1.85;;;22.90;63.20;;;;;;6241358;22;45298;-64
2022/07/18 11:41:07;;;;;;;2.33;1.90;;;22.90;63.20;;;;;;6240176;22;44706;-64
2022/07/18 11:43:35;;;;;;;2.22;1.98;;;22.90;63.20;;;;;;6241414;22;43413;-64
2022/07/18 11:46:02;;;;;;;2.50;1.90;;;22.90;63.20;;;;;;6242189;22;43570;-64
2022/07/18 11:48:29;;;;;;;2.05;1.70;;;23.00;63.30;;;;;;6241144;22;44746;-64
2022/07/18 11:50:57;;;;;;;2.03;1.90;;;23.00;63.20;;;;;;6243105;22;43943;-64
2022/07/18 11:53:26;;;;;;;2.08;1.88;;;23.00;63.10;;;;;;6243174;22;43392;-64
2022/07/18 11:55:55;;;;;;;2.70;2.05;;;23.00;63.10;;;;;;6242193;22;43558;-64
2022/07/18 11:58:23;;;;;;;2.03;1.75;;;23.00;63.10;;;;;;6242893;22;45258;-63
2022/07/18 12:00:50;;;;;;;2.20;2.00;;;23.10;63.10;;;;;;6242982;22;44117;-65
2022/07/18 12:03:22;;;;;;;2.70;2.08;;;23.10;63.10;;;;;;6241781;22;43403;-61
2022/07/18 12:05:52;;;;;;;1.98;1.77;;;23.10;63.40;;;;;;6241165;22;43376;-63
2022/07/18 12:08:36;;;;;;;2.42;2.10;;;23.20;63.30;;;;;;6241761;22;44967;-63
2022/07/18 12:11:19;;;;;;;1.80;1.60;;;23.20;63.10;;;;;;6240642;22;43559;-63
2022/07/18 12:13:51;;;;;;;1.95;1.85;;;23.20;63.00;;;;;;6240676;22;43641;-63
2022/07/18 12:16:27;;;;;;;2.85;1.80;;;23.20;62.90;;;;;;6241601;22;43381;-65
2022/07/18 12:18:58;;;;;;;1.88;1.77;;;23.20;62.90;;;;;;6241926;22;44923;-63
2022/07/18 12:21:39;;;;;;;2.00;1.90;;;23.30;62.90;;;;;;6241762;22;44109;-63
2022/07/18 12:24:23;;;;;;;3.72;2.25;;;23.20;62.80;;;;;;6241022;22;43415;-63
2022/07/18 12:27:13;;;;;;;2.25;1.77;;;23.20;62.90;;;;;;6241341;22;43329;-63
2022/07/18 12:30:03;;;;;;;2.53;1.80;;;23.30;62.90;;;;;;6241125;22;43778;-64
2022/07/18 12:32:54;;;;;;;2.90;1.80;;;23.30;62.90;;;;;;6241789;22;43408;-63
2022/07/18 12:35:35;;;;;;;2.05;1.70;;;23.40;62.90;;;;;;6241912;22;43408;-63
2022/07/18 12:38:16;;;;;;;2.42;1.80;;;23.40;62.90;;;;;;6214203;22;43515;-63
2022/07/18 12:40:58;;;;;;;2.88;1.80;;;23.40;62.90;;;;;;6241226;22;44937;-64
2022/07/18 12:43:33;;;;;;;2.20;2.00;;;23.40;62.80;;;;;;6240730;22;43831;-63
2022/07/18 12:46:03;;;;;;;2.20;2.00;;;23.50;62.80;;;;;;6241640;22;43379;-63
2022/07/18 12:48:31;;;;;;;7.05;2.00;;;23.50;62.80;;;;;;6241251;22;43438;-63
2022/07/18 12:51:02;;;;;;;3.35;1.90;;;23.50;63.50;;;;;;6241421;22;45052;-63
2022/07/18 12:53:33;;;;;;;2.10;1.90;;;23.60;63.40;;;;;;6240858;22;43373;-63
2022/07/18 12:56:01;;;;;;;3.35;1.95;;;23.60;62.90;;;;;;6242150;22;43439;-63
2022/07/18 12:58:28;;;;;;;2.67;2.03;;;23.60;62.80;;;;;;6240577;22;43589;-63
2022/07/18 13:00:56;;;;;;;2.15;1.95;;;23.60;62.70;;;;;;6241343;22;44662;-63